createdAt,value
2022-08-07T00:02:40.399Z,19.00
2022-08-07T00:05:12.913Z,19.00
2022-08-07T00:07:43.664Z,18.90
2022-08-07T00:10:26.082Z,18.90
2022-08-07T00:13:01.032Z,18.90
2022-08-07T00:15:46.117Z,18.90
2022-08-07T00:18:39.319Z,19.00
2022-08-07T00:21:57.053Z,19.00
2022-08-07T00:23:59.644Z,19.00
2022-08-07T00:26:48.716Z,19.00
2022-08-07T00:29:19.828Z,19.00
2022-08-07T00:31:59.948Z,19.00
2022-08-07T00:34:35.978Z,19.00
2022-08-07T00:37:09.499Z,19.00
2022-08-07T00:39:45.253Z,19.00
2022-08-07T00:42:28.957Z,19.00
2022-08-07T00:44:57.854Z,19.00
2022-08-07T00:48:07.532Z,18.90
2022-08-07T00:50:46.152Z,19.00
2022-08-07T00:53:25.564Z,18.90
2022-08-07T00:56:02.909Z,18.90
2022-08-07T00:58:34.999Z,18.90
2022-08-07T01:01:08.508Z,18.90
2022-08-07T01:03:56.552Z,18.90
2022-08-07T01:06:32.304Z,18.90
2022-08-07T01:09:07.074Z,18.90
2022-08-07T01:12:27.623Z,18.90
2022-08-07T01:14:36.963Z,18.90
2022-08-07T01:17:07.124Z,18.90
2022-08-07T01:19:39.971Z,18.90
2022-08-07T01:22:22.568Z,18.80
2022-08-07T01:24:52.478Z,18.70
2022-08-07T01:27:20.143Z,18.60
2022-08-07T01:29:51.609Z,18.60
2022-08-07T01:37:55.291Z,18.80
2022-08-07T01:43:10.465Z,18.80
2022-08-07T01:45:40.345Z,18.80
2022-08-07T01:48:19.127Z,18.80
2022-08-07T01:50:55.573Z,18.80
2022-08-07T01:54:09.493Z,18.80
2022-08-07T01:56:49.411Z,18.80
2022-08-07T01:59:35.070Z,18.90
2022-08-07T02:03:11.251Z,18.80
2022-08-07T02:05:16.179Z,18.80
2022-08-07T02:08:04.311Z,18.60
2022-08-07T02:10:54.912Z,18.50
2022-08-07T02:16:38.331Z,18.50
2022-08-07T02:20:05.510Z,18.40
2022-08-07T02:22:25.967Z,18.30
2022-08-07T02:24:57.321Z,18.30
2022-08-07T02:27:34.918Z,18.30
2022-08-07T02:30:07.301Z,18.40
2022-08-07T02:32:59.986Z,18.40
2022-08-07T02:36:30.467Z,18.50
2022-08-07T02:38:22.825Z,18.50
2022-08-07T02:40:59.314Z,18.40
2022-08-07T02:43:29.642Z,18.40
2022-08-07T02:46:04.384Z,18.50
2022-08-07T02:48:34.380Z,18.50
2022-08-07T02:51:28.935Z,18.50
2022-08-07T02:53:59.181Z,18.40
2022-08-07T02:56:31.363Z,18.30
2022-08-07T02:59:02.498Z,18.20
2022-08-07T03:01:35.434Z,18.10
2022-08-07T03:04:30.049Z,18.10
2022-08-07T03:06:58.081Z,18.10
2022-08-07T03:09:42.448Z,18.10
2022-08-07T03:12:22.715Z,18.20
2022-08-07T03:15:02.575Z,18.20
2022-08-07T03:17:53.080Z,18.20
2022-08-07T03:20:22.365Z,18.30
2022-08-07T03:25:40.370Z,18.40
2022-08-07T03:28:37.546Z,18.40
2022-08-07T03:31:24.517Z,18.40
2022-08-07T03:33:58.130Z,18.40
2022-08-07T03:36:31.299Z,18.40
2022-08-07T03:39:07.199Z,18.40
2022-08-07T03:41:42.094Z,18.40
2022-08-07T03:44:16.097Z,18.40
2022-08-07T03:47:10.951Z,18.30
2022-08-07T03:49:39.701Z,18.30
2022-08-07T03:52:22.942Z,18.30
2022-08-07T03:55:07.521Z,18.30
2022-08-07T03:58:34.531Z,18.20
2022-08-07T04:03:12.438Z,17.90
2022-08-07T04:05:42.328Z,18.00
2022-08-07T04:08:18.488Z,18.00
2022-08-07T04:10:53.943Z,17.90
2022-08-07T04:13:27.665Z,17.90
2022-08-07T04:15:58.407Z,18.10
2022-08-07T04:18:57.689Z,18.10
2022-08-07T04:21:18.080Z,18.10
2022-08-07T04:24:05.927Z,18.20
2022-08-07T04:26:33.986Z,18.30
2022-08-07T04:29:05.931Z,18.30
2022-08-07T04:32:03.020Z,18.40
2022-08-07T04:34:33.365Z,18.40
2022-08-07T04:37:07.987Z,18.30
2022-08-07T04:39:47.875Z,18.40
2022-08-07T04:42:17.250Z,18.60
2022-08-07T04:44:54.439Z,18.50
2022-08-07T04:48:02.202Z,18.40
2022-08-07T04:50:55.359Z,18.40
2022-08-07T04:54:01.211Z,18.50
2022-08-07T04:58:14.371Z,18.70
2022-08-07T05:00:10.702Z,18.90
2022-08-07T05:02:39.666Z,19.10
2022-08-07T05:05:51.877Z,19.30
2022-08-07T05:08:59.570Z,19.50
2022-08-07T05:11:58.027Z,19.60
2022-08-07T05:14:56.351Z,19.80
2022-08-07T05:17:52.804Z,20.00
2022-08-07T05:20:27.267Z,20.20
2022-08-07T05:23:01.235Z,20.10
2022-08-07T05:25:54.409Z,20.30
2022-08-07T05:28:23.273Z,20.60
2022-08-07T05:30:56.761Z,21.10
2022-08-07T05:33:24.256Z,21.40
2022-08-07T05:35:55.174Z,21.50
2022-08-07T05:39:01.077Z,21.40
2022-08-07T05:41:15.723Z,21.60
2022-08-07T05:44:08.613Z,21.30
2022-08-07T05:46:45.237Z,21.00
2022-08-07T05:49:20.099Z,20.90
2022-08-07T05:51:49.135Z,20.80
2022-08-07T05:54:31.080Z,20.90
2022-08-07T05:57:09.515Z,21.00
2022-08-07T05:59:56.063Z,21.10
2022-08-07T06:02:30.560Z,21.20
2022-08-07T06:05:03.721Z,21.20
2022-08-07T06:08:14.682Z,21.20
2022-08-07T06:10:21.965Z,21.30
2022-08-07T06:12:49.866Z,21.30
2022-08-07T06:15:19.731Z,21.40
2022-08-07T06:17:50.619Z,21.50
2022-08-07T06:20:32.030Z,21.60
2022-08-07T06:23:46.068Z,21.60
2022-08-07T06:26:02.915Z,21.70
2022-08-07T06:28:33.695Z,21.80
2022-08-07T06:31:02.310Z,21.90
2022-08-07T06:33:34.220Z,22.10
2022-08-07T06:36:12.043Z,22.10
2022-08-07T06:38:51.669Z,22.20
2022-08-07T06:42:02.213Z,22.40
2022-08-07T06:44:33.960Z,22.60
2022-08-07T06:47:10.026Z,22.90
2022-08-07T06:49:52.172Z,23.00
2022-08-07T06:52:31.942Z,23.30
2022-08-07T06:55:31.677Z,23.40
2022-08-07T06:58:05.366Z,23.60
2022-08-07T07:00:42.392Z,23.60
2022-08-07T07:03:39.746Z,23.60
2022-08-07T07:06:11.188Z,24.20
2022-08-07T07:08:46.597Z,24.50
2022-08-07T07:12:08.162Z,24.80
2022-08-07T07:14:04.561Z,25.00
2022-08-07T07:16:59.589Z,25.10
2022-08-07T07:19:56.870Z,25.00
2022-08-07T07:22:36.364Z,25.40
2022-08-07T07:26:31.400Z,25.70
2022-08-07T07:28:42.337Z,26.00
2022-08-07T07:31:24.001Z,26.10
2022-08-07T07:33:57.197Z,25.80
2022-08-07T07:36:32.182Z,24.70
2022-08-07T07:39:02.579Z,24.60
2022-08-07T07:42:01.826Z,25.00
2022-08-07T07:44:26.606Z,25.40
2022-08-07T07:47:04.325Z,25.40
2022-08-07T07:50:33.699Z,25.00
2022-08-07T07:52:32.680Z,25.10
2022-08-07T07:55:01.475Z,25.10
2022-08-07T07:57:50.514Z,24.90
2022-08-07T08:00:20.908Z,25.40
2022-08-07T08:03:05.326Z,26.00
2022-08-07T08:05:50.821Z,26.50
2022-08-07T08:08:35.497Z,26.60
2022-08-07T08:11:16.592Z,26.90
2022-08-07T08:14:01.926Z,27.30
2022-08-07T08:16:39.875Z,27.40
2022-08-07T08:19:29.629Z,27.50
2022-08-07T08:22:18.139Z,27.80
2022-08-07T08:25:18.945Z,28.00
2022-08-07T08:28:01.752Z,28.00
2022-08-07T08:30:42.470Z,27.90
2022-08-07T08:33:17.053Z,28.00
2022-08-07T08:35:49.993Z,28.00
2022-08-07T08:38:21.521Z,27.80
2022-08-07T08:41:05.872Z,27.30
2022-08-07T08:43:58.749Z,26.20
2022-08-07T08:46:34.515Z,24.70
2022-08-07T08:49:18.065Z,24.40
2022-08-07T08:52:22.366Z,24.50
2022-08-07T08:54:59.525Z,24.70
2022-08-07T08:57:57.995Z,24.70
2022-08-07T09:00:30.580Z,25.60
2022-08-07T09:03:15.895Z,25.80
2022-08-07T09:05:50.802Z,26.00
2022-08-07T09:08:28.109Z,26.40
2022-08-07T09:11:25.046Z,27.00
2022-08-07T09:14:16.915Z,27.60
2022-08-07T09:16:48.031Z,28.20
2022-08-07T09:19:55.012Z,28.50
2022-08-07T09:24:32.712Z,28.70
2022-08-07T09:25:43.100Z,28.20
2022-08-07T09:30:06.562Z,27.70
2022-08-07T09:32:17.249Z,27.40
2022-08-07T09:36:05.246Z,27.80
2022-08-07T09:38:12.268Z,28.20
2022-08-07T09:41:02.094Z,27.80
2022-08-07T09:44:19.937Z,27.60
2022-08-07T09:48:00.907Z,27.70
2022-08-07T09:50:42.643Z,27.50
2022-08-07T09:53:13.158Z,27.50
2022-08-07T09:56:04.543Z,26.70
2022-08-07T09:58:48.758Z,26.00
2022-08-07T10:01:54.360Z,26.30
2022-08-07T10:04:53.403Z,26.20
2022-08-07T10:07:53.532Z,25.40
2022-08-07T10:11:07.701Z,24.70
2022-08-07T10:14:04.412Z,24.60
2022-08-07T10:17:02.201Z,24.50
2022-08-07T10:19:42.540Z,24.40
2022-08-07T10:22:50.815Z,24.90
2022-08-07T10:25:53.019Z,25.80
2022-08-07T10:28:49.904Z,26.80
2022-08-07T10:31:41.218Z,26.80
2022-08-07T10:34:27.241Z,26.00
2022-08-07T10:38:00.316Z,25.40
2022-08-07T10:40:40.054Z,25.10
2022-08-07T10:43:07.373Z,24.70
2022-08-07T10:45:57.630Z,24.80
2022-08-07T10:48:51.569Z,25.50
2022-08-07T10:52:01.728Z,26.20
2022-08-07T10:54:24.973Z,26.90
2022-08-07T10:56:57.978Z,27.50
2022-08-07T10:59:47.586Z,28.10
2022-08-07T11:02:54.089Z,28.50
2022-08-07T11:05:48.973Z,28.80
2022-08-07T11:08:49.068Z,29.00
2022-08-07T11:14:46.408Z,29.10
2022-08-07T11:17:33.373Z,29.10
2022-08-07T11:20:14.589Z,29.00
2022-08-07T11:22:53.279Z,28.90
2022-08-07T11:25:29.608Z,28.90
2022-08-07T11:28:21.859Z,28.90
2022-08-07T11:31:11.386Z,28.80
2022-08-07T11:33:53.456Z,28.70
2022-08-07T11:37:00.388Z,28.80
2022-08-07T11:40:03.578Z,29.00
2022-08-07T11:42:55.413Z,28.80
2022-08-07T11:45:55.494Z,28.30
2022-08-07T11:49:51.104Z,27.90
2022-08-07T11:52:39.937Z,27.30
2022-08-07T11:56:13.953Z,27.00
2022-08-07T11:59:05.282Z,26.40
2022-08-07T12:02:30.811Z,26.50
2022-08-07T12:05:15.435Z,26.50
2022-08-07T12:08:25.915Z,26.80
2022-08-07T12:11:32.453Z,26.90
2022-08-07T12:14:13.477Z,26.80
2022-08-07T12:16:51.173Z,26.90
2022-08-07T12:20:02.794Z,26.90
2022-08-07T12:22:38.871Z,27.00
2022-08-07T12:26:21.483Z,27.40
2022-08-07T12:29:00.766Z,27.80
2022-08-07T12:31:52.492Z,28.10
2022-08-07T12:34:28.109Z,27.90
2022-08-07T12:36:57.425Z,28.00
2022-08-07T12:39:44.074Z,27.80
2022-08-07T12:42:13.566Z,27.60
2022-08-07T12:44:45.177Z,27.50
2022-08-07T12:47:37.887Z,27.60
2022-08-07T12:50:39.619Z,27.60
2022-08-07T12:53:22.907Z,27.80
2022-08-07T12:56:09.392Z,27.80
2022-08-07T12:58:39.799Z,27.70
2022-08-07T13:01:28.041Z,27.60
2022-08-07T13:04:31.655Z,27.60
2022-08-07T13:08:12.199Z,27.50
2022-08-07T13:10:52.184Z,27.40
2022-08-07T13:13:48.279Z,27.40
2022-08-07T13:16:40.787Z,27.50
2022-08-07T13:19:50.395Z,27.40
2022-08-07T13:22:31.535Z,27.40
2022-08-07T13:25:45.552Z,27.50
2022-08-07T13:28:25.113Z,27.50
2022-08-07T13:31:01.765Z,27.50
2022-08-07T13:34:32.622Z,27.50
2022-08-07T13:36:49.282Z,27.50
2022-08-07T13:39:48.927Z,27.60
2022-08-07T13:42:21.539Z,27.50
2022-08-07T13:45:11.498Z,27.60
2022-08-07T13:48:06.034Z,27.60
2022-08-07T13:50:45.073Z,27.50
2022-08-07T13:53:55.265Z,27.50
2022-08-07T13:56:35.980Z,27.50
2022-08-07T13:59:16.153Z,27.50
2022-08-07T14:02:03.764Z,27.50
2022-08-07T14:04:38.131Z,27.70
2022-08-07T14:07:20.628Z,27.70
2022-08-07T14:10:02.546Z,27.70
2022-08-07T14:12:55.028Z,27.70
2022-08-07T14:15:39.319Z,27.60
2022-08-07T14:18:28.337Z,27.70
2022-08-07T14:22:41.237Z,27.90
2022-08-07T14:24:33.286Z,28.20
2022-08-07T14:28:09.116Z,28.20
2022-08-07T14:30:05.562Z,28.10
2022-08-07T14:33:14.813Z,27.80
2022-08-07T14:35:47.503Z,27.40
2022-08-07T14:38:26.412Z,27.00
2022-08-07T14:41:03.916Z,26.90
2022-08-07T14:43:58.617Z,26.70
2022-08-07T14:46:30.503Z,26.50
2022-08-07T14:49:17.301Z,26.40
2022-08-07T14:54:35.881Z,26.30
2022-08-07T15:02:56.634Z,26.70
2022-08-07T15:05:26.907Z,26.80
2022-08-07T15:07:59.521Z,26.90
2022-08-07T15:10:29.964Z,27.10
2022-08-07T15:13:11.395Z,27.20
2022-08-07T15:15:42.865Z,27.20
2022-08-07T15:21:58.838Z,26.80
2022-08-07T15:25:13.686Z,26.30
2022-08-07T15:27:22.052Z,26.20
2022-08-07T15:30:09.088Z,25.90
2022-08-07T15:32:50.713Z,25.70
2022-08-07T15:36:02.007Z,25.70
2022-08-07T15:38:30.193Z,25.70
2022-08-07T15:41:23.357Z,25.90
2022-08-07T15:44:01.569Z,26.00
2022-08-07T15:46:32.490Z,26.10
2022-08-07T15:54:34.531Z,25.90
2022-08-07T15:57:40.028Z,25.80
2022-08-07T16:00:04.118Z,25.80
2022-08-07T16:02:41.569Z,25.80
2022-08-07T16:05:19.627Z,25.80
2022-08-07T16:08:32.820Z,25.90
2022-08-07T16:10:48.635Z,25.80
2022-08-07T16:13:57.854Z,25.70
2022-08-07T16:16:47.643Z,25.60
2022-08-07T16:19:17.056Z,25.80
2022-08-07T16:22:31.630Z,25.50
2022-08-07T16:25:23.142Z,25.20
2022-08-07T16:30:06.124Z,25.10
2022-08-07T16:31:57.649Z,24.70
2022-08-07T16:34:18.170Z,24.50
2022-08-07T16:38:02.675Z,24.40
2022-08-07T16:40:30.754Z,24.30
2022-08-07T16:43:24.028Z,24.00
2022-08-07T16:47:05.667Z,23.90
2022-08-07T16:50:20.671Z,23.70
2022-08-07T16:53:15.007Z,23.70
2022-08-07T16:56:10.289Z,23.50
2022-08-07T16:59:17.360Z,23.40
2022-08-07T17:02:51.120Z,23.30
2022-08-07T17:06:19.380Z,23.10
2022-08-07T17:09:04.199Z,23.10
2022-08-07T17:12:01.476Z,23.00
2022-08-07T17:14:43.998Z,22.80
2022-08-07T17:17:46.720Z,22.60
2022-08-07T17:20:37.353Z,22.70
2022-08-07T17:23:32.056Z,22.40
2022-08-07T17:26:23.409Z,22.20
2022-08-07T17:30:15.858Z,22.20
2022-08-07T17:32:52.673Z,22.20
2022-08-07T17:35:54.554Z,22.20
2022-08-07T17:39:10.097Z,22.10
2022-08-07T17:42:03.992Z,22.10
2022-08-07T17:45:01.060Z,22.10
2022-08-07T17:47:44.664Z,22.00
2022-08-07T17:50:47.192Z,21.90
2022-08-07T17:54:01.667Z,21.90
2022-08-07T17:56:29.302Z,21.80
2022-08-07T17:58:57.246Z,21.70
2022-08-07T18:01:37.357Z,21.70
2022-08-07T18:04:42.193Z,21.80
2022-08-07T18:07:28.405Z,21.80
2022-08-07T18:10:32.031Z,21.80
2022-08-07T18:13:15.326Z,21.60
2022-08-07T18:16:08.329Z,21.60
2022-08-07T18:21:03.337Z,21.50
2022-08-07T18:21:55.190Z,21.40
2022-08-07T18:24:47.167Z,21.40
2022-08-07T18:27:38.526Z,21.30
2022-08-07T18:30:30.833Z,21.10
2022-08-07T18:33:23.494Z,21.20
2022-08-07T18:36:13.190Z,21.10
2022-08-07T18:38:55.560Z,20.90
2022-08-07T18:41:45.450Z,20.90
2022-08-07T18:45:40.020Z,21.00
2022-08-07T18:47:45.076Z,21.00
2022-08-07T18:50:36.558Z,20.90
2022-08-07T18:53:39.196Z,20.80
2022-08-07T18:56:41.048Z,20.80
2022-08-07T18:59:47.630Z,20.70
2022-08-07T19:02:58.954Z,20.70
2022-08-07T19:06:03.391Z,20.70
2022-08-07T19:08:55.998Z,20.60
2022-08-07T19:12:03.843Z,20.50
2022-08-07T19:14:56.353Z,20.50
2022-08-07T19:18:01.593Z,20.40
2022-08-07T19:21:10.052Z,20.40
2022-08-07T19:23:57.470Z,20.40
2022-08-07T19:27:01.712Z,20.30
2022-08-07T19:31:00.065Z,20.20
2022-08-07T19:32:28.911Z,20.20
2022-08-07T19:35:10.156Z,20.20
2022-08-07T19:37:55.297Z,20.10
2022-08-07T19:40:30.496Z,20.10
2022-08-07T19:42:59.137Z,20.10
2022-08-07T19:46:01.161Z,20.10
2022-08-07T19:48:24.310Z,20.10
2022-08-07T19:50:54.423Z,20.00
2022-08-07T19:54:35.001Z,20.10
2022-08-07T19:57:51.231Z,20.00
2022-08-07T19:59:21.319Z,20.00
2022-08-07T20:01:57.547Z,20.10
2022-08-07T20:04:31.052Z,20.10
2022-08-07T20:06:58.438Z,20.10
2022-08-07T20:10:33.853Z,20.00
2022-08-07T20:12:34.973Z,19.90
2022-08-07T20:15:09.771Z,19.90
2022-08-07T20:18:01.823Z,20.00
2022-08-07T20:20:32.950Z,20.00
2022-08-07T20:23:33.076Z,20.00
2022-08-07T20:26:10.136Z,19.90
2022-08-07T20:28:40.152Z,19.90
2022-08-07T20:31:21.367Z,19.90
2022-08-07T20:33:57.406Z,19.80
2022-08-07T20:36:29.810Z,19.90
2022-08-07T20:39:00.340Z,19.90
2022-08-07T20:41:42.654Z,20.00
2022-08-07T20:44:13.040Z,20.00
2022-08-07T20:46:44.445Z,20.00
2022-08-07T20:49:58.949Z,20.00
2022-08-07T20:52:16.426Z,20.00
2022-08-07T20:54:53.833Z,20.00
2022-08-07T20:57:28.134Z,19.90
2022-08-07T21:00:04.948Z,19.90
2022-08-07T21:02:58.726Z,19.90
2022-08-07T21:05:54.418Z,19.90
2022-08-07T21:08:41.218Z,20.10
2022-08-07T21:11:16.206Z,20.20
2022-08-07T21:14:16.448Z,20.20
2022-08-07T21:18:00.485Z,20.30
2022-08-07T21:20:05.101Z,20.40
2022-08-07T21:23:15.393Z,20.50
2022-08-07T21:26:19.278Z,20.60
2022-08-07T21:29:06.739Z,20.60
2022-08-07T21:32:46.701Z,20.50
2022-08-07T21:36:04.191Z,20.60
2022-08-07T21:39:48.200Z,20.50
2022-08-07T21:42:48.384Z,20.50
2022-08-07T21:46:05.062Z,20.50
2022-08-07T21:48:42.439Z,20.50
2022-08-07T21:51:51.355Z,20.50
2022-08-07T21:55:13.866Z,20.30
2022-08-07T21:58:30.172Z,20.20
2022-08-07T22:02:07.682Z,20.20
2022-08-07T22:04:24.945Z,20.30
2022-08-07T22:07:15.370Z,20.30
2022-08-07T22:09:54.030Z,20.40
2022-08-07T22:12:59.534Z,20.30
2022-08-07T22:16:42.500Z,20.30
2022-08-07T22:19:23.499Z,20.30
2022-08-07T22:22:27.447Z,20.40
2022-08-07T22:25:37.229Z,20.40
2022-08-07T22:28:34.554Z,20.40
2022-08-07T22:31:59.461Z,20.40
2022-08-07T22:34:52.859Z,20.40
2022-08-07T22:38:04.732Z,20.40
2022-08-07T22:41:02.987Z,20.30
2022-08-07T22:43:57.002Z,20.30
2022-08-07T22:47:04.514Z,20.30
2022-08-07T22:50:01.743Z,20.30
2022-08-07T22:52:45.727Z,20.20
2022-08-07T22:55:53.174Z,20.20
2022-08-07T22:59:01.014Z,20.20
2022-08-07T23:02:27.321Z,20.10
2022-08-07T23:06:06.967Z,20.10
2022-08-07T23:08:55.980Z,19.90
2022-08-07T23:12:32.743Z,19.70
2022-08-07T23:16:06.386Z,19.50
2022-08-07T23:18:34.169Z,19.60
2022-08-07T23:21:21.101Z,19.70
2022-08-07T23:24:32.969Z,19.70
2022-08-07T23:28:22.176Z,19.70
2022-08-07T23:31:11.271Z,19.50
2022-08-07T23:34:35.692Z,19.40
2022-08-07T23:38:01.006Z,19.20
2022-08-07T23:40:52.868Z,19.10
2022-08-07T23:44:04.593Z,19.00
2022-08-07T23:47:13.841Z,19.00
2022-08-07T23:50:16.039Z,18.90
2022-08-07T23:53:16.794Z,18.90
2022-08-07T23:56:21.076Z,18.90
